Misión y Visión

La misión es proporcionar información fiable a la navegación aérea, contribuyendo a la seguridad, regularidad y eficiencia de la Navegación Aérea Internacional

La visión es contribuir sustancialmente al desarrollo de conocimientos y a la utilización de la meteorología aeronáutica a nivel nacional e internacional, mediante la innovación y la coparticipación con sectores sociales y productivos de la sociedad.

 
  Inicio
  Metar
  Taf
  Wintemp
  SIGMET
  Avisos
  Pronósticos
  Carpeta Meteorologica
  Imágenes Satelitales
  Climatología Aeronáutica
   
  ¿Quienes Somos?
  Contacto
  Eventos
Taf

 

IMÁGENES DEL AEROPUERTO
(EN CONSTRUCCION)

 

PRONOSTICO DE AERÓDROMO
TAF / PROYECCION CLIMATICA
MES DE JULIO

 

AEROPUERTO ENRIQUE MALEK:

TAF MPMG 231710Z 2318/2406 12006KT 9999 FEW018 TEMPO 2320/2324 SCT018 SCT090 BECMG 2400/2404 00000KT


TAF:

TAF MPDA 231710Z 2318/2406 24006KT 9999 SCT018 SCT090 BECMG 2401/2405 00000KT=

 

AEROPUERTO PANAMA PACIFICO:

hola



TAF:



AEROPUERTO MARCOS A. GELABERT:

TAF MPMG 231710Z 2318/2406 12006KT 9999 FEW018 TEMPO 2320/2324 SCT018 SCT090 BECMG 2400/2404 00000KT=



TAF:



AEROPUERTO INTL. DE TOCUMEN:

TAF MPPA 232305Z 2400/2506 22006KT 9999 SCT020 BECMG 2403/2407 00000KT TEMPO 2416/2420 18010KT



TAF:

TAF MPTO 232305Z 2400/2506 18005KT 9999 FEW018 TEMPO 2401/2405 00000KT TEMPO 2412/2416 05005KT


 
 



























  Noticias AAC
  Directorio
  Contáctenos
  Historia
  Quejas y Sugerencias
  Etica y Transparencia

  Gestión SSP/SMS
  Seguridad Aérea
  Navegación Aérea
  Transporte Aéreo

  Tramites
  Áeronaves de Alquiler

  Meteorología
  I.S.F.P.A
  Notam
  Peligro Aviario
  AVSEC
  UPIA
  Permisos
 




DECLARACIÓN DE PRIVACIDAD